Time;durP1;ratioP1;P1;durP2;ratioP2;P2;SDS_P1;SDS_P2;PMS_P1;PMS_P2;Temp;Humidity;BMP_temperature;BMP_pressure;BME280_temperature;BME280_humidity;BME280_pressure;Samples;Min_cycle;Max_cycle;Signal;HPM_P1;HPM_P2
2022/01/16 00:00:18;;;;;;;165.50;61.43;;;4.50;99.90;;;;;;4899413;29;37931;-73
2022/01/16 00:05:21;;;;;;;129.83;54.93;;;4.60;99.90;;;;;;4885314;29;40024;-73
2022/01/16 00:07:48;;;;;;;150.97;57.37;;;4.60;99.90;;;;;;4880995;29;38879;-73
2022/01/16 00:10:17;;;;;;;161.73;57.97;;;4.70;99.90;;;;;;4880979;29;37845;-73
2022/01/16 00:12:48;;;;;;;174.20;60.37;;;4.70;99.90;;;;;;4880793;29;38444;-74
2022/01/16 00:15:15;;;;;;;181.70;60.87;;;4.70;99.90;;;;;;4877975;29;39481;-75
2022/01/16 00:17:53;;;;;;;161.80;57.20;;;4.70;99.90;;;;;;4879095;29;38694;-74
2022/01/16 00:20:20;;;;;;;148.53;58.00;;;4.80;99.90;;;;;;4886136;28;38270;-74
2022/01/16 00:22:47;;;;;;;188.97;63.40;;;4.80;99.90;;;;;;4884569;29;38699;-75
2022/01/16 00:25:15;;;;;;;165.77;62.37;;;4.80;99.90;;;;;;4877140;29;40223;-75
2022/01/16 00:27:43;;;;;;;164.37;61.73;;;4.90;99.90;;;;;;4902596;28;39940;-75
2022/01/16 00:30:10;;;;;;;176.90;63.87;;;4.90;99.90;;;;;;4882956;29;36919;-75
2022/01/16 00:32:37;;;;;;;174.10;62.67;;;4.90;99.90;;;;;;4886248;29;38501;-75
2022/01/16 00:35:04;;;;;;;179.77;64.80;;;4.90;99.90;;;;;;4887164;29;38071;-75
2022/01/16 00:37:30;;;;;;;170.27;62.60;;;4.90;99.90;;;;;;4878794;29;47230;-75
2022/01/16 00:39:56;;;;;;;150.30;61.63;;;4.90;99.90;;;;;;4893976;29;36253;-75
2022/01/16 00:42:22;;;;;;;161.23;61.87;;;4.90;99.90;;;;;;4878603;29;39772;-73
2022/01/16 00:44:48;;;;;;;164.87;62.93;;;4.90;99.90;;;;;;4895723;29;38831;-75
2022/01/16 00:47:14;;;;;;;164.97;63.40;;;4.90;99.90;;;;;;4884359;29;38437;-73
2022/01/16 00:49:41;;;;;;;158.27;61.60;;;4.90;99.90;;;;;;4885973;29;38086;-73
2022/01/16 00:52:09;;;;;;;141.60;59.47;;;4.90;99.90;;;;;;4885832;29;38912;-74
2022/01/16 00:54:36;;;;;;;151.63;60.77;;;4.90;99.90;;;;;;4887753;29;38105;-74
2022/01/16 00:57:03;;;;;;;133.43;56.67;;;4.90;99.90;;;;;;4887152;29;39096;-74
2022/01/16 00:59:29;;;;;;;164.23;62.83;;;4.90;99.90;;;;;;4888356;29;38315;-74
2022/01/16 01:01:56;;;;;;;224.67;69.60;;;4.90;99.90;;;;;;4887586;29;38168;-73
2022/01/16 01:04:22;;;;;;;150.90;61.33;;;4.80;99.90;;;;;;4887435;29;39467;-74
2022/01/16 01:06:50;;;;;;;194.97;67.37;;;4.90;99.90;;;;;;4888361;29;37369;-74
2022/01/16 01:09:17;;;;;;;151.67;60.87;;;4.80;99.90;;;;;;4891754;29;37130;-73
2022/01/16 01:11:45;;;;;;;165.63;64.80;;;4.80;99.90;;;;;;4888799;29;38262;-74
2022/01/16 01:14:37;;;;;;;220.70;70.67;;;4.90;99.90;;;;;;4886784;29;40105;-75
2022/01/16 01:17:04;;;;;;;162.73;61.13;;;4.90;99.90;;;;;;4881006;29;38580;-74
2022/01/16 01:19:33;;;;;;;126.27;55.13;;;4.90;99.90;;;;;;4895461;29;38005;-73
2022/01/16 01:22:06;;;;;;;173.93;63.97;;;4.80;99.90;;;;;;4885266;29;39026;-73
2022/01/16 01:24:35;;;;;;;117.83;54.87;;;4.80;99.90;;;;;;4887521;29;47259;-73
2022/01/16 01:27:21;;;;;;;110.43;54.33;;;4.80;99.90;;;;;;4887347;29;41364;-74
2022/01/16 01:29:55;;;;;;;116.87;53.67;;;4.70;99.90;;;;;;4889434;29;37465;-73
2022/01/16 01:32:21;;;;;;;124.57;55.67;;;4.70;99.90;;;;;;4888308;29;39915;-74
2022/01/16 01:34:47;;;;;;;108.73;53.30;;;4.70;99.90;;;;;;4881925;29;40268;-74
2022/01/16 01:37:13;;;;;;;121.13;55.47;;;4.60;99.90;;;;;;4879786;29;38991;-73
2022/01/16 01:39:39;;;;;;;125.67;56.37;;;4.60;99.90;;;;;;4894481;29;35964;-74
2022/01/16 01:42:10;;;;;;;116.53;54.20;;;4.60;99.90;;;;;;4877088;28;37371;-73
2022/01/16 01:52:53;;;;;;;114.90;55.03;;;4.50;99.90;;;;;;4887172;29;40179;-72
2022/01/16 01:55:20;;;;;;;114.17;56.27;;;4.50;99.90;;;;;;4888995;29;39944;-73
2022/01/16 01:57:46;;;;;;;134.47;62.87;;;4.50;99.90;;;;;;4890083;29;38811;-73
2022/01/16 02:00:17;;;;;;;130.17;58.93;;;4.50;99.90;;;;;;4887080;29;38489;-73
2022/01/16 02:05:24;;;;;;;151.27;63.93;;;4.50;99.90;;;;;;4885546;29;40297;-74
2022/01/16 02:07:50;;;;;;;120.20;59.50;;;4.50;99.90;;;;;;4888478;29;38685;-73
2022/01/16 02:10:16;;;;;;;125.40;59.17;;;4.60;99.90;;;;;;4885520;29;37140;-73
2022/01/16 02:12:44;;;;;;;105.50;54.73;;;4.50;99.90;;;;;;4885866;29;39288;-73
2022/01/16 02:34:41;;;;;;;99.60;53.17;;;4.40;99.90;;;;;;4882312;29;39229;-73
2022/01/16 02:37:11;;;;;;;98.72;52.65;;;4.30;99.90;;;;;;4876240;29;39588;-73
2022/01/16 02:39:41;;;;;;;102.67;53.60;;;4.30;99.90;;;;;;4879642;29;39562;-73
2022/01/16 02:42:11;;;;;;;99.47;50.70;;;4.30;99.90;;;;;;4880964;29;37636;-73
2022/01/16 02:44:47;;;;;;;106.37;56.10;;;4.30;99.90;;;;;;4886703;29;39585;-73
2022/01/16 02:47:19;;;;;;;121.77;58.50;;;4.20;99.90;;;;;;4887603;29;38245;-73
2022/01/16 02:49:49;;;;;;;109.18;56.03;;;4.20;99.90;;;;;;4886976;29;39055;-73
2022/01/16 02:52:21;;;;;;;94.47;52.13;;;4.20;99.90;;;;;;4890980;28;38281;-73
2022/01/16 02:54:49;;;;;;;130.73;59.90;;;4.20;99.90;;;;;;4890587;29;38948;-73
2022/01/16 02:57:18;;;;;;;88.83;48.23;;;4.10;99.90;;;;;;4883017;29;38527;-73
2022/01/16 02:59:53;;;;;;;96.80;53.43;;;4.10;99.90;;;;;;4886258;29;39072;-73
2022/01/16 03:02:20;;;;;;;108.87;54.77;;;4.10;99.90;;;;;;4886661;29;38853;-72
2022/01/16 03:04:47;;;;;;;112.63;58.40;;;4.00;99.90;;;;;;4888552;29;38661;-73
2022/01/16 03:07:15;;;;;;;86.43;50.57;;;4.00;99.90;;;;;;4898060;29;38997;-73
2022/01/16 03:12:26;;;;;;;122.33;57.97;;;3.90;99.90;;;;;;4887469;29;38074;-73
2022/01/16 03:14:53;;;;;;;93.40;51.33;;;3.90;99.90;;;;;;4890910;29;38951;-72
2022/01/16 03:17:34;;;;;;;112.30;55.33;;;3.90;99.90;;;;;;4888803;29;38540;-73
2022/01/16 03:22:45;;;;;;;88.53;49.50;;;3.90;99.90;;;;;;4885402;29;49495;-72
2022/01/16 03:25:11;;;;;;;118.33;58.83;;;4.00;99.90;;;;;;4885008;29;39313;-73
2022/01/16 03:27:38;;;;;;;94.43;50.87;;;3.90;99.90;;;;;;4885479;29;39305;-73
2022/01/16 03:30:05;;;;;;;93.33;51.83;;;3.90;99.90;;;;;;4886427;29;38336;-73
2022/01/16 03:32:31;;;;;;;139.20;63.93;;;3.90;99.90;;;;;;4886691;29;39198;-72
2022/01/16 03:34:57;;;;;;;137.07;62.23;;;3.90;99.90;;;;;;4881484;29;38793;-73
2022/01/16 03:37:23;;;;;;;101.97;56.30;;;3.90;99.90;;;;;;4881606;29;37964;-72
2022/01/16 03:39:49;;;;;;;90.63;50.57;;;3.90;99.90;;;;;;4887261;29;39827;-73
2022/01/16 03:42:23;;;;;;;89.97;50.37;;;3.90;99.90;;;;;;4882236;29;38307;-72
2022/01/16 03:44:49;;;;;;;88.90;51.30;;;3.90;99.90;;;;;;4885656;29;39262;-73
2022/01/16 03:47:15;;;;;;;96.70;51.83;;;3.90;99.90;;;;;;4883133;29;39461;-72
2022/01/16 03:49:41;;;;;;;106.47;56.17;;;3.80;99.90;;;;;;4899254;29;38747;-72
2022/01/16 03:52:07;;;;;;;89.73;52.53;;;3.80;99.90;;;;;;4892380;29;37958;-75
2022/01/16 03:54:34;;;;;;;124.03;60.77;;;3.90;99.90;;;;;;4895375;29;38949;-73
2022/01/16 03:57:01;;;;;;;86.53;50.33;;;3.90;99.90;;;;;;4886238;29;39041;-74
2022/01/16 03:59:27;;;;;;;85.17;49.73;;;3.90;99.90;;;;;;4890063;29;48240;-72
2022/01/16 04:01:54;;;;;;;90.87;50.97;;;3.90;99.90;;;;;;4885453;29;38178;-72
2022/01/16 04:04:20;;;;;;;134.33;63.23;;;3.90;99.90;;;;;;4885399;29;38744;-73
2022/01/16 04:06:46;;;;;;;86.40;51.27;;;3.90;99.90;;;;;;4885363;29;38928;-73
2022/01/16 04:09:12;;;;;;;99.33;54.93;;;3.90;99.90;;;;;;4900762;29;39625;-73
2022/01/16 04:11:45;;;;;;;97.53;54.23;;;3.90;99.90;;;;;;4900364;29;36311;-73
2022/01/16 04:14:20;;;;;;;120.33;61.53;;;4.00;99.90;;;;;;4884286;29;40268;-73
2022/01/16 04:16:46;;;;;;;128.23;63.43;;;4.00;99.90;;;;;;4885285;29;39987;-73
2022/01/16 04:19:12;;;;;;;91.70;53.03;;;4.10;99.90;;;;;;4886569;29;39225;-73
2022/01/16 04:21:38;;;;;;;107.47;55.30;;;4.10;99.90;;;;;;4889547;29;37253;-73
2022/01/16 04:24:04;;;;;;;141.50;66.03;;;4.30;99.90;;;;;;4889245;29;38963;-73
2022/01/16 04:26:30;;;;;;;114.27;57.97;;;4.40;99.90;;;;;;4888218;29;38468;-73
2022/01/16 04:28:56;;;;;;;88.43;49.13;;;4.50;99.90;;;;;;4886087;29;38791;-73
2022/01/16 04:31:23;;;;;;;85.40;48.53;;;4.60;99.90;;;;;;4885860;29;37602;-74
2022/01/16 04:33:50;;;;;;;79.77;47.10;;;4.80;99.90;;;;;;4887998;29;39502;-73
2022/01/16 04:36:16;;;;;;;85.17;47.80;;;4.90;99.90;;;;;;4884265;29;39747;-73
2022/01/16 04:38:48;;;;;;;94.73;48.60;;;4.90;99.90;;;;;;4884620;29;38432;-73
2022/01/16 04:44:02;;;;;;;85.87;45.83;;;5.10;99.90;;;;;;4886280;29;40541;-73
2022/01/16 04:46:30;;;;;;;82.40;45.97;;;5.20;99.90;;;;;;4883782;29;48870;-76
2022/01/16 04:48:57;;;;;;;75.27;44.43;;;5.20;99.90;;;;;;4884992;29;37408;-75
2022/01/16 04:51:25;;;;;;;80.97;46.03;;;5.30;99.90;;;;;;4885304;28;38030;-75
2022/01/16 04:53:51;;;;;;;71.60;41.03;;;5.30;99.90;;;;;;4883711;29;39189;-75
2022/01/16 04:56:17;;;;;;;68.20;40.30;;;5.40;99.90;;;;;;4883499;29;37762;-74
2022/01/16 04:58:45;;;;;;;70.73;40.83;;;5.40;99.90;;;;;;4888009;29;39532;-74
2022/01/16 05:01:11;;;;;;;72.87;39.07;;;5.40;99.90;;;;;;4883515;28;39027;-75
2022/01/16 05:03:38;;;;;;;66.73;38.63;;;5.50;99.90;;;;;;4886768;29;39042;-75
2022/01/16 05:06:06;;;;;;;59.67;35.10;;;5.60;99.90;;;;;;4885906;29;38905;-75
2022/01/16 05:08:32;;;;;;;60.70;35.37;;;5.60;99.90;;;;;;4888426;29;39292;-75
2022/01/16 05:10:58;;;;;;;63.53;36.77;;;5.60;99.90;;;;;;4885930;29;35609;-75
2022/01/16 05:16:34;;;;;;;59.53;36.30;;;5.70;99.90;;;;;;4900145;29;38640;-75
2022/01/16 05:19:07;;;;;;;51.40;32.47;;;5.70;99.90;;;;;;4890544;29;38536;-74
2022/01/16 05:21:34;;;;;;;51.83;32.75;;;5.70;99.90;;;;;;4888067;29;48456;-75
2022/01/16 05:24:05;;;;;;;49.63;30.50;;;5.70;99.90;;;;;;4901329;29;40049;-75
2022/01/16 05:26:34;;;;;;;50.50;30.60;;;5.80;99.90;;;;;;4888490;29;48589;-75
2022/01/16 05:29:00;;;;;;;51.93;30.77;;;5.80;99.90;;;;;;4886015;29;39168;-75
2022/01/16 05:31:26;;;;;;;48.37;29.23;;;5.90;99.90;;;;;;4883825;29;37266;-75
2022/01/16 05:33:52;;;;;;;45.43;26.13;;;5.90;99.90;;;;;;4900061;29;37443;-75
2022/01/16 05:36:22;;;;;;;37.63;22.23;;;6.00;99.90;;;;;;4886297;29;37914;-75
2022/01/16 05:38:49;;;;;;;28.10;18.23;;;6.00;99.90;;;;;;4897412;29;37640;-74
2022/01/16 05:41:18;;;;;;;23.13;14.70;;;6.10;99.90;;;;;;4877329;29;37453;-74
2022/01/16 05:43:45;;;;;;;25.00;12.67;;;6.30;99.90;;;;;;4878867;29;38834;-74
2022/01/16 05:46:12;;;;;;;18.93;11.57;;;6.50;99.90;;;;;;4884063;29;40234;-75
2022/01/16 05:48:39;;;;;;;15.93;8.73;;;6.60;99.90;;;;;;4901216;29;39257;-75
2022/01/16 05:51:05;;;;;;;15.93;7.47;;;6.80;99.90;;;;;;4886922;29;38155;-74
2022/01/16 05:53:31;;;;;;;12.93;6.93;;;7.10;99.90;;;;;;4890356;29;38865;-74
2022/01/16 05:55:57;;;;;;;15.93;6.37;;;7.30;99.90;;;;;;4885207;29;38268;-74
2022/01/16 05:58:23;;;;;;;12.50;5.57;;;7.50;99.90;;;;;;4884620;29;38649;-74
2022/01/16 06:00:49;;;;;;;9.83;5.23;;;7.60;99.90;;;;;;4884879;29;37775;-74
2022/01/16 06:03:15;;;;;;;11.97;5.90;;;7.70;99.90;;;;;;4894564;28;40728;-74
2022/01/16 06:05:42;;;;;;;10.67;6.00;;;7.80;99.90;;;;;;4885069;29;38839;-74
2022/01/16 06:08:11;;;;;;;14.73;6.40;;;7.80;99.90;;;;;;4884489;29;38718;-75
2022/01/16 06:10:39;;;;;;;10.03;5.80;;;7.80;99.90;;;;;;4885002;29;38093;-74
2022/01/16 06:13:05;;;;;;;9.50;5.87;;;7.80;99.90;;;;;;4882046;29;38949;-74
2022/01/16 06:15:32;;;;;;;10.27;6.30;;;7.90;99.90;;;;;;4884058;29;39840;-74
2022/01/16 06:18:00;;;;;;;12.67;5.70;;;7.90;99.90;;;;;;4882386;29;39408;-74
2022/01/16 06:20:27;;;;;;;13.60;6.73;;;7.90;99.90;;;;;;4877421;29;38598;-74
2022/01/16 06:22:53;;;;;;;11.07;6.97;;;7.90;99.90;;;;;;4887574;28;38802;-74
2022/01/16 06:25:19;;;;;;;12.07;7.37;;;7.90;99.90;;;;;;4886376;29;40041;-75
2022/01/16 06:27:45;;;;;;;13.87;7.00;;;7.90;99.90;;;;;;4889386;28;38188;-75
2022/01/16 06:30:12;;;;;;;16.80;7.50;;;8.00;99.90;;;;;;4899855;29;37794;-74
2022/01/16 06:32:38;;;;;;;12.63;7.40;;;8.00;99.90;;;;;;4899240;29;37370;-74
2022/01/16 06:35:06;;;;;;;12.77;8.00;;;8.00;99.90;;;;;;4884291;29;40054;-75
2022/01/16 06:37:32;;;;;;;13.30;7.73;;;8.00;99.90;;;;;;4899625;29;38841;-74
2022/01/16 06:39:58;;;;;;;13.30;6.90;;;8.00;99.90;;;;;;4883962;29;35910;-74
2022/01/16 06:42:24;;;;;;;17.67;7.90;;;8.10;99.90;;;;;;4883399;29;38993;-74
2022/01/16 06:44:51;;;;;;;14.33;7.70;;;8.10;99.90;;;;;;4887333;29;20639;-74
2022/01/16 06:47:18;;;;;;;13.80;7.37;;;8.10;99.90;;;;;;4900027;29;37143;-74
2022/01/16 06:49:44;;;;;;;10.30;7.20;;;8.10;99.90;;;;;;4888017;29;36201;-74
2022/01/16 06:52:10;;;;;;;16.60;7.57;;;8.20;99.90;;;;;;4887904;29;38631;-74
2022/01/16 06:54:36;;;;;;;12.33;6.33;;;8.20;99.90;;;;;;4888742;29;37658;-74
2022/01/16 06:57:02;;;;;;;15.87;6.53;;;8.20;99.90;;;;;;4892494;29;38267;-74
2022/01/16 06:59:29;;;;;;;17.00;7.27;;;8.20;99.90;;;;;;4884149;29;36530;-74
2022/01/16 07:01:55;;;;;;;11.13;6.10;;;8.20;99.90;;;;;;4890989;29;38117;-75
2022/01/16 07:04:21;;;;;;;13.13;6.50;;;8.20;99.90;;;;;;4879519;29;37704;-75
2022/01/16 07:06:47;;;;;;;14.03;6.47;;;8.20;99.90;;;;;;4883934;29;37990;-75
2022/01/16 07:09:13;;;;;;;11.27;6.23;;;8.20;99.90;;;;;;4883345;29;34785;-74
2022/01/16 07:11:39;;;;;;;12.00;6.63;;;8.20;99.90;;;;;;4878142;29;40003;-75
2022/01/16 07:14:05;;;;;;;12.57;6.30;;;8.20;99.90;;;;;;4889430;29;38595;-74
2022/01/16 07:16:31;;;;;;;11.23;6.40;;;8.10;99.90;;;;;;4888642;29;39223;-74
2022/01/16 07:18:57;;;;;;;19.20;7.07;;;8.20;99.90;;;;;;4890214;29;38216;-75
2022/01/16 07:21:23;;;;;;;11.90;7.20;;;8.10;99.90;;;;;;4888644;29;40438;-75
2022/01/16 07:23:49;;;;;;;15.67;6.33;;;8.00;99.90;;;;;;4888168;29;38882;-77
2022/01/16 07:26:17;;;;;;;16.00;8.00;;;8.00;99.90;;;;;;4887715;29;40042;-75
2022/01/16 07:28:44;;;;;;;15.93;10.10;;;7.90;99.90;;;;;;4884853;29;38452;-75
2022/01/16 07:31:10;;;;;;;28.70;15.37;;;7.80;99.90;;;;;;4885721;29;39604;-76
2022/01/16 07:33:36;;;;;;;34.03;20.20;;;7.70;99.90;;;;;;4887514;29;38687;-75
2022/01/16 07:36:03;;;;;;;49.33;26.20;;;7.60;99.90;;;;;;4888481;29;38879;-76
2022/01/16 07:38:29;;;;;;;49.97;26.17;;;7.50;99.90;;;;;;4886299;29;37934;-75
2022/01/16 07:40:55;;;;;;;55.20;29.20;;;7.40;99.90;;;;;;4889349;29;39942;-76
2022/01/16 07:43:23;;;;;;;53.40;29.53;;;7.20;99.90;;;;;;4903519;29;37679;-75
2022/01/16 07:45:49;;;;;;;59.60;31.70;;;7.20;99.90;;;;;;4888959;29;38475;-75
2022/01/16 07:48:15;;;;;;;59.80;32.20;;;7.10;99.90;;;;;;4883107;29;37487;-75
2022/01/16 07:50:41;;;;;;;57.47;33.27;;;7.10;99.90;;;;;;4886257;29;39478;-75
2022/01/16 07:53:08;;;;;;;53.83;32.13;;;7.10;99.90;;;;;;4888159;28;38947;-75
2022/01/16 07:55:34;;;;;;;74.37;36.57;;;7.00;99.90;;;;;;4888360;29;37520;-75
2022/01/16 07:58:01;;;;;;;70.77;35.70;;;6.90;99.90;;;;;;4890066;29;38559;-76
2022/01/16 08:00:27;;;;;;;64.07;34.27;;;6.90;99.90;;;;;;4885581;29;47315;-76
2022/01/16 08:02:54;;;;;;;68.57;35.07;;;6.90;99.90;;;;;;4889656;29;40074;-75
2022/01/16 08:05:21;;;;;;;69.90;36.50;;;6.90;99.90;;;;;;4889525;29;38398;-75
2022/01/16 08:07:47;;;;;;;67.33;37.37;;;6.90;99.90;;;;;;4887761;29;37456;-75
2022/01/16 08:10:13;;;;;;;73.67;37.10;;;6.80;99.90;;;;;;4889282;29;38678;-75
2022/01/16 08:12:40;;;;;;;77.53;38.90;;;6.80;99.90;;;;;;4889831;29;38794;-75
2022/01/16 08:15:08;;;;;;;84.57;41.17;;;6.80;99.90;;;;;;4885812;29;38758;-75
2022/01/16 08:17:36;;;;;;;83.90;42.43;;;6.80;99.90;;;;;;4881312;29;38128;-76
2022/01/16 08:20:10;;;;;;;84.10;40.60;;;6.80;99.90;;;;;;4884057;29;38687;-75
2022/01/16 08:22:37;;;;;;;77.40;39.23;;;6.80;99.90;;;;;;4885250;29;48488;-76
2022/01/16 08:25:04;;;;;;;93.53;44.73;;;6.70;99.90;;;;;;4882821;29;38517;-75
2022/01/16 08:27:31;;;;;;;92.57;44.40;;;6.70;99.90;;;;;;4883442;29;47232;-75
2022/01/16 08:29:57;;;;;;;101.93;44.50;;;6.80;99.90;;;;;;4877895;29;41017;-75
2022/01/16 08:32:23;;;;;;;83.23;41.63;;;6.80;99.90;;;;;;4876362;29;38288;-76
2022/01/16 08:34:49;;;;;;;98.73;43.73;;;6.80;99.90;;;;;;4882492;29;40305;-76
2022/01/16 08:37:15;;;;;;;89.10;43.13;;;6.70;99.90;;;;;;4898541;29;37974;-76
2022/01/16 08:39:42;;;;;;;105.13;46.33;;;6.80;99.90;;;;;;4888019;29;40097;-76
2022/01/16 08:42:08;;;;;;;107.20;48.03;;;6.80;99.90;;;;;;4888854;29;38713;-73
2022/01/16 08:44:34;;;;;;;95.00;44.70;;;6.80;99.90;;;;;;4887439;29;38902;-75
2022/01/16 08:47:00;;;;;;;98.33;44.40;;;6.80;99.90;;;;;;4887872;29;36341;-75
2022/01/16 08:49:26;;;;;;;98.17;44.67;;;6.80;99.90;;;;;;4886397;29;39358;-75
2022/01/16 08:51:52;;;;;;;105.73;48.07;;;6.80;99.90;;;;;;4887024;29;39560;-75
2022/01/16 08:54:18;;;;;;;97.40;44.90;;;6.90;99.90;;;;;;4886533;29;39067;-77
2022/01/16 08:56:44;;;;;;;104.57;47.50;;;6.80;99.90;;;;;;4898293;29;39333;-76
2022/01/16 08:59:10;;;;;;;127.17;52.70;;;6.80;99.90;;;;;;4885182;29;39073;-76
2022/01/16 09:01:36;;;;;;;110.20;49.50;;;6.90;99.90;;;;;;4886091;29;39244;-76
2022/01/16 09:04:03;;;;;;;111.30;48.07;;;6.90;99.90;;;;;;4887210;29;39625;-75
2022/01/16 09:06:29;;;;;;;112.23;47.87;;;6.80;99.90;;;;;;4890936;29;37506;-76
2022/01/16 09:08:55;;;;;;;110.33;47.93;;;6.80;99.90;;;;;;4891325;29;39285;-75
2022/01/16 09:11:25;;;;;;;95.97;42.07;;;6.90;99.90;;;;;;4887630;29;39403;-76
2022/01/16 09:13:54;;;;;;;104.53;46.83;;;6.90;99.90;;;;;;4889662;29;39819;-75
2022/01/16 09:16:21;;;;;;;107.73;44.17;;;7.10;99.90;;;;;;4886539;29;38824;-75
2022/01/16 09:18:48;;;;;;;102.50;46.73;;;7.20;99.90;;;;;;4900110;29;40444;-75
2022/01/16 09:21:18;;;;;;;104.73;47.27;;;7.10;99.90;;;;;;4888767;29;38955;-75
2022/01/16 09:23:45;;;;;;;119.20;47.97;;;7.10;99.90;;;;;;4890731;29;38490;-79
2022/01/16 09:26:12;;;;;;;112.10;46.90;;;7.10;99.90;;;;;;4886897;29;38384;-75
2022/01/16 09:28:40;;;;;;;112.47;46.67;;;7.10;99.90;;;;;;4886154;29;37825;-75
2022/01/16 09:31:06;;;;;;;103.70;46.33;;;7.10;99.90;;;;;;4887046;29;37606;-75
2022/01/16 09:33:33;;;;;;;107.63;44.47;;;7.10;99.90;;;;;;4890086;29;39491;-75
2022/01/16 09:35:59;;;;;;;112.87;47.80;;;7.10;99.90;;;;;;4882537;29;37304;-75
2022/01/16 09:38:25;;;;;;;114.90;47.33;;;7.10;99.90;;;;;;4899719;29;38101;-75
2022/01/16 09:40:52;;;;;;;115.03;47.07;;;7.10;99.90;;;;;;4884594;29;38416;-77
2022/01/16 09:43:18;;;;;;;108.87;44.70;;;7.10;99.90;;;;;;4886420;29;37070;-75
2022/01/16 09:45:45;;;;;;;107.83;45.37;;;7.10;99.90;;;;;;4887000;29;38450;-74
2022/01/16 09:48:11;;;;;;;111.20;46.03;;;7.00;99.90;;;;;;4885528;29;38750;-75
2022/01/16 09:50:37;;;;;;;124.90;48.73;;;7.00;99.90;;;;;;4883584;29;38903;-75
2022/01/16 09:53:04;;;;;;;112.13;47.37;;;7.00;99.90;;;;;;4881998;29;38507;-75
2022/01/16 09:55:31;;;;;;;121.53;47.30;;;7.00;99.90;;;;;;4886595;29;37726;-75
2022/01/16 09:57:57;;;;;;;124.37;47.90;;;7.00;99.90;;;;;;4900453;29;38475;-75
2022/01/16 10:00:24;;;;;;;118.57;48.90;;;7.00;99.90;;;;;;4884143;29;39239;-76
2022/01/16 10:02:51;;;;;;;120.43;49.47;;;7.10;99.90;;;;;;4885981;29;38547;-75
2022/01/16 10:05:38;;;;;;;121.63;49.50;;;7.10;99.90;;;;;;4882764;29;37583;-75
2022/01/16 10:08:11;;;;;;;123.37;48.40;;;7.20;99.90;;;;;;4881450;29;39367;-75
2022/01/16 10:10:39;;;;;;;;;;;7.30;99.90;;;;;;4885433;29;38135;-75
2022/01/16 10:13:33;;;;;;;138.00;51.93;;;7.40;99.90;;;;;;4885040;29;39807;-75
2022/01/16 10:15:59;;;;;;;110.87;45.87;;;7.50;99.90;;;;;;4898085;29;37481;-76
2022/01/16 10:18:40;;;;;;;112.93;47.50;;;7.40;99.90;;;;;;4887144;29;40527;-75
2022/01/16 10:21:10;;;;;;;114.47;48.37;;;7.50;99.90;;;;;;4885447;29;39384;-76
2022/01/16 10:23:41;;;;;;;106.70;48.17;;;7.60;99.90;;;;;;4900101;29;38388;-76
2022/01/16 10:26:18;;;;;;;121.17;49.50;;;7.70;99.90;;;;;;4885735;29;38634;-76
2022/01/16 10:28:45;;;;;;;98.67;44.80;;;7.70;99.90;;;;;;4887979;29;40361;-75
2022/01/16 10:31:22;;;;;;;102.50;45.83;;;7.70;99.90;;;;;;4887221;29;38759;-76
2022/01/16 10:33:49;;;;;;;101.13;46.43;;;7.80;99.90;;;;;;4892487;29;38472;-75
2022/01/16 10:36:38;;;;;;;99.67;43.73;;;7.90;99.90;;;;;;4884696;29;37612;-75
2022/01/16 10:39:11;;;;;;;95.37;42.53;;;7.90;99.90;;;;;;4899636;29;39176;-76
2022/01/16 10:41:41;;;;;;;94.97;43.97;;;8.00;99.90;;;;;;4886540;29;40321;-80
2022/01/16 10:44:27;;;;;;;100.93;42.27;;;8.00;99.90;;;;;;4866457;29;39376;-79
2022/01/16 10:46:53;;;;;;;86.77;41.00;;;8.10;99.90;;;;;;4879279;29;39016;-78
2022/01/16 10:49:20;;;;;;;96.83;43.10;;;8.10;99.90;;;;;;4863956;29;39408;-78
2022/01/16 10:52:06;;;;;;;84.43;39.70;;;8.10;99.90;;;;;;4867803;29;40676;-78
2022/01/16 10:54:35;;;;;;;92.80;40.03;;;8.20;99.90;;;;;;4867557;29;47284;-78
2022/01/16 10:57:22;;;;;;;81.97;39.80;;;8.30;99.90;;;;;;4881327;29;36766;-78
2022/01/16 10:59:49;;;;;;;86.33;37.83;;;8.30;99.90;;;;;;4867766;29;48588;-78
2022/01/16 11:02:15;;;;;;;81.03;36.33;;;8.40;99.90;;;;;;4867440;29;39077;-78
2022/01/16 11:04:41;;;;;;;68.43;34.20;;;8.40;99.90;;;;;;4863048;29;38639;-78
2022/01/16 11:07:07;;;;;;;71.53;34.97;;;8.40;99.90;;;;;;4879254;29;38460;-78
2022/01/16 11:09:33;;;;;;;67.73;33.73;;;8.50;99.90;;;;;;4872345;29;39039;-78
2022/01/16 11:12:00;;;;;;;65.37;33.83;;;8.50;99.90;;;;;;4869199;29;39150;-78
2022/01/16 11:14:29;;;;;;;71.63;32.83;;;8.50;99.90;;;;;;4872486;29;37435;-78
2022/01/16 11:16:57;;;;;;;63.77;31.13;;;8.60;99.90;;;;;;4872984;29;38449;-78
2022/01/16 11:19:25;;;;;;;60.70;31.03;;;8.60;99.90;;;;;;4869788;29;39476;-78
2022/01/16 11:21:56;;;;;;;47.07;26.87;;;8.60;99.90;;;;;;4870283;29;39906;-78
2022/01/16 11:26:52;;;;;;;54.47;28.60;;;8.70;99.90;;;;;;4869473;29;37563;-78
2022/01/16 11:29:18;;;;;;;51.23;26.80;;;8.70;99.90;;;;;;4869935;29;38573;-78
2022/01/16 11:31:48;;;;;;;52.93;27.40;;;8.70;99.90;;;;;;4864023;29;39569;-78
2022/01/16 11:34:14;;;;;;;44.70;25.63;;;8.70;99.90;;;;;;4861701;29;39202;-78
2022/01/16 11:36:41;;;;;;;52.33;26.40;;;8.70;99.90;;;;;;4868933;29;36144;-78
2022/01/16 11:39:09;;;;;;;51.50;26.30;;;8.70;99.90;;;;;;4870523;29;38828;-77
2022/01/16 11:41:46;;;;;;;48.47;26.47;;;8.80;99.90;;;;;;4886313;29;40455;-77
2022/01/16 11:44:30;;;;;;;43.73;23.87;;;8.90;99.90;;;;;;4868328;29;39510;-77
2022/01/16 11:47:03;;;;;;;45.37;25.37;;;8.90;99.90;;;;;;4870398;29;38235;-77
2022/01/16 11:49:38;;;;;;;43.00;23.03;;;9.00;99.90;;;;;;4876259;29;48561;-77
2022/01/16 11:52:13;;;;;;;40.40;21.87;;;9.00;99.90;;;;;;4872662;29;39327;-77
2022/01/16 11:54:44;;;;;;;44.70;23.17;;;9.10;99.90;;;;;;4893315;29;40220;-77
2022/01/16 11:57:26;;;;;;;39.57;21.53;;;9.10;99.90;;;;;;4872888;29;37962;-77
2022/01/16 12:00:06;;;;;;;37.22;20.67;;;9.10;99.90;;;;;;4877689;29;40449;-77
2022/01/16 12:02:37;;;;;;;33.47;18.87;;;9.10;99.90;;;;;;4874213;29;47516;-77
2022/01/16 12:05:04;;;;;;;28.63;17.93;;;9.10;99.90;;;;;;4876669;29;40044;-77
2022/01/16 12:07:37;;;;;;;28.03;17.67;;;9.20;99.90;;;;;;4892481;29;47337;-77
2022/01/16 12:10:04;;;;;;;26.95;15.20;;;9.30;99.90;;;;;;4894774;29;42876;-78
2022/01/16 12:12:31;;;;;;;21.70;13.73;;;9.30;99.90;;;;;;4879228;29;48915;-77
2022/01/16 12:15:19;;;;;;;18.73;11.40;;;9.30;99.90;;;;;;4878277;29;38456;-77
2022/01/16 12:17:51;;;;;;;14.90;8.83;;;9.20;99.90;;;;;;4865714;29;47282;-77
2022/01/16 12:20:27;;;;;;;16.30;10.40;;;9.10;99.90;;;;;;4872385;29;39717;-77
2022/01/16 12:23:04;;;;;;;19.60;12.33;;;9.10;99.90;;;;;;4872421;29;39181;-78
2022/01/16 12:25:39;;;;;;;22.63;13.30;;;9.00;99.90;;;;;;4870251;29;47337;-77
2022/01/16 12:28:08;;;;;;;24.40;13.90;;;8.90;99.90;;;;;;4872494;29;37891;-77
2022/01/16 12:30:59;;;;;;;23.23;14.13;;;8.80;99.90;;;;;;4878563;29;39640;-77
2022/01/16 12:33:37;;;;;;;27.50;16.43;;;8.90;99.90;;;;;;4869308;29;39097;-77
2022/01/16 12:36:11;;;;;;;31.00;17.20;;;8.90;99.90;;;;;;4870541;29;41304;-77
2022/01/16 12:38:51;;;;;;;26.90;16.73;;;9.00;99.90;;;;;;4891512;29;38828;-77
2022/01/16 12:41:24;;;;;;;29.50;18.50;;;8.90;99.90;;;;;;4869651;29;38876;-77
2022/01/16 12:43:56;;;;;;;36.88;20.90;;;8.90;99.90;;;;;;4900590;29;38035;-77
2022/01/16 12:46:34;;;;;;;37.58;22.27;;;8.90;99.90;;;;;;4889268;29;39492;-77
2022/01/16 12:49:04;;;;;;;33.70;21.83;;;8.90;99.90;;;;;;4888971;29;39169;-77
2022/01/16 12:51:34;;;;;;;37.07;21.33;;;8.90;99.90;;;;;;4884146;29;47630;-77
2022/01/16 12:54:06;;;;;;;39.13;22.77;;;8.90;99.90;;;;;;4891932;29;38899;-77
2022/01/16 12:56:37;;;;;;;44.27;26.77;;;8.90;99.90;;;;;;4895494;29;47701;-77
2022/01/16 12:59:15;;;;;;;51.60;28.57;;;8.90;99.90;;;;;;4904240;29;36259;-77
2022/01/16 13:02:02;;;;;;;48.47;28.10;;;8.90;99.90;;;;;;4902784;29;39634;-77
2022/01/16 13:04:36;;;;;;;50.17;30.37;;;8.90;99.90;;;;;;4891272;29;49049;-77
2022/01/16 13:07:15;;;;;;;54.97;32.17;;;8.80;99.90;;;;;;4895798;29;37843;-77
2022/01/16 13:09:42;;;;;;;65.70;35.33;;;8.70;99.90;;;;;;4890887;29;38236;-77
2022/01/16 13:12:12;;;;;;;62.40;35.97;;;8.70;99.90;;;;;;4890421;29;38857;-77
2022/01/16 13:14:41;;;;;;;65.37;35.30;;;8.70;99.90;;;;;;4888787;29;39562;-77
2022/01/16 13:17:10;;;;;;;73.07;39.17;;;8.60;99.90;;;;;;4887347;29;38522;-76
2022/01/16 13:22:15;;;;;;;78.37;39.90;;;8.60;99.90;;;;;;4889127;28;39018;-77
2022/01/16 13:25:00;;;;;;;76.87;40.93;;;8.60;99.90;;;;;;4885617;29;37579;-76
2022/01/16 13:27:28;;;;;;;78.70;41.07;;;8.60;99.90;;;;;;4885822;29;38575;-77
2022/01/16 13:30:05;;;;;;;77.73;39.27;;;8.60;99.90;;;;;;4887052;29;38308;-78
2022/01/16 13:32:34;;;;;;;65.50;38.33;;;8.70;99.90;;;;;;4887556;29;47583;-77